createdAt,value
2017-12-19T00:00:35.086Z,35.20
2017-12-19T00:01:00.889Z,33.80
2017-12-19T00:01:26.448Z,32.90
2017-12-19T00:01:51.994Z,33.00
2017-12-19T00:02:17.722Z,33.40
2017-12-19T00:02:42.663Z,33.40
2017-12-19T00:03:08.561Z,33.20
2017-12-19T00:03:34.030Z,34.10
2017-12-19T00:03:59.907Z,35.10
2017-12-19T00:04:25.852Z,34.90
2017-12-19T00:04:50.940Z,33.90
2017-12-19T00:05:16.454Z,33.30
2017-12-19T00:05:42.597Z,33.70
2017-12-19T00:06:08.231Z,33.50
2017-12-19T00:06:33.058Z,33.90
2017-12-19T00:06:58.791Z,35.10
2017-12-19T00:07:24.281Z,34.80
2017-12-19T00:07:49.183Z,34.60
2017-12-19T00:08:15.103Z,34.70
2017-12-19T00:08:40.709Z,35.80
2017-12-19T00:09:32.422Z,33.80
2017-12-19T00:09:58.345Z,33.70
2017-12-19T00:10:24.179Z,34.70
2017-12-19T00:10:50.691Z,35.50
2017-12-19T00:11:15.546Z,34.90
2017-12-19T00:11:41.038Z,35.00
2017-12-19T00:12:06.623Z,33.30
2017-12-19T00:12:31.490Z,33.80
2017-12-19T00:13:22.077Z,34.50
2017-12-19T00:13:47.654Z,33.90
2017-12-19T00:14:13.722Z,33.20
2017-12-19T00:14:38.880Z,33.00
2017-12-19T00:15:03.616Z,33.10
2017-12-19T00:15:28.359Z,33.40
2017-12-19T00:15:54.011Z,33.80
2017-12-19T00:16:19.357Z,34.70
2017-12-19T00:16:44.802Z,33.90
2017-12-19T00:17:09.579Z,34.40
2017-12-19T00:17:34.984Z,33.40
2017-12-19T00:18:25.407Z,34.40
2017-12-19T00:18:50.013Z,33.40
2017-12-19T00:19:14.723Z,32.20
2017-12-19T00:19:39.760Z,33.80
2017-12-19T00:20:04.410Z,34.60
2017-12-19T00:20:29.079Z,34.30
2017-12-19T00:20:54.539Z,35.00
2017-12-19T00:21:19.976Z,34.10
2017-12-19T00:21:45.029Z,32.80
2017-12-19T00:22:09.782Z,33.70
2017-12-19T00:22:34.444Z,34.80
2017-12-19T00:22:59.795Z,35.90
2017-12-19T00:23:25.178Z,35.50
2017-12-19T00:23:51.118Z,35.60
2017-12-19T00:24:16.838Z,36.30
2017-12-19T00:24:42.148Z,37.00
2017-12-19T00:25:32.747Z,35.70
2017-12-19T00:25:58.517Z,36.40
2017-12-19T00:26:23.859Z,36.90
2017-12-19T00:26:49.391Z,34.80
2017-12-19T00:27:14.847Z,33.60
2017-12-19T00:27:39.994Z,35.00
2017-12-19T00:28:31.047Z,35.40
2017-12-19T00:28:56.340Z,35.70
2017-12-19T00:29:21.230Z,35.70
2017-12-19T00:29:46.613Z,36.00
2017-12-19T00:30:11.987Z,35.40
2017-12-19T00:30:36.670Z,34.90
2017-12-19T00:31:01.648Z,34.00
2017-12-19T00:31:26.986Z,33.30
2017-12-19T00:31:54.301Z,33.50
2017-12-19T00:32:45.227Z,33.90
2017-12-19T00:33:10.436Z,33.40
2017-12-19T00:33:35.550Z,34.20
2017-12-19T00:34:01.195Z,34.60
2017-12-19T00:34:26.313Z,34.50
2017-12-19T00:34:51.766Z,35.30
2017-12-19T00:35:17.148Z,36.10
2017-12-19T00:35:42.323Z,36.90
2017-12-19T00:36:07.747Z,35.90
2017-12-19T00:36:32.871Z,33.00
2017-12-19T00:36:57.942Z,33.00
2017-12-19T00:37:23.467Z,34.40
2017-12-19T00:37:48.238Z,35.90
2017-12-19T00:38:14.001Z,35.80
2017-12-19T00:39:04.565Z,34.70
2017-12-19T00:39:29.916Z,35.10
2017-12-19T00:39:54.981Z,35.30
2017-12-19T00:40:45.762Z,35.90
2017-12-19T00:41:11.437Z,35.00
2017-12-19T00:41:36.776Z,34.80
2017-12-19T00:42:01.460Z,35.00
2017-12-19T00:42:26.100Z,35.70
2017-12-19T00:42:51.980Z,35.90
2017-12-19T00:43:17.298Z,36.30
2017-12-19T00:43:42.821Z,35.40
2017-12-19T00:44:07.539Z,35.70
2017-12-19T00:44:32.895Z,36.00
2017-12-19T00:44:58.310Z,36.50
2017-12-19T00:45:22.909Z,36.10
2017-12-19T00:45:47.492Z,35.40
2017-12-19T00:46:12.446Z,35.40
2017-12-19T00:46:37.516Z,34.60
2017-12-19T00:47:02.950Z,35.30
2017-12-19T00:47:27.790Z,36.60
2017-12-19T00:47:53.877Z,36.20
2017-12-19T00:48:18.613Z,35.80
2017-12-19T00:48:43.948Z,35.50
2017-12-19T00:49:09.315Z,35.20
2017-12-19T00:49:59.962Z,34.40
2017-12-19T00:50:24.715Z,34.30
2017-12-19T00:50:50.091Z,35.30
2017-12-19T00:51:15.797Z,34.70
2017-12-19T00:51:41.103Z,34.30
2017-12-19T00:52:05.792Z,34.50
2017-12-19T00:52:56.672Z,33.50
2017-12-19T00:53:22.073Z,34.10
2017-12-19T00:53:47.495Z,35.00
2017-12-19T00:54:12.833Z,35.00
2017-12-19T00:54:38.638Z,35.40
2017-12-19T00:55:03.945Z,36.30
2017-12-19T00:55:29.208Z,35.30
2017-12-19T00:55:54.517Z,35.30
2017-12-19T00:56:19.928Z,35.90
2017-12-19T00:56:45.775Z,34.30
2017-12-19T00:57:11.145Z,33.60
2017-12-19T00:57:36.534Z,33.50
2017-12-19T00:58:01.895Z,33.00
2017-12-19T00:58:27.149Z,33.90
2017-12-19T00:58:52.522Z,34.50
2017-12-19T00:59:17.178Z,35.30
2017-12-19T00:59:41.784Z,35.60
2017-12-19T01:00:06.453Z,35.40
2017-12-19T01:00:31.795Z,35.00
2017-12-19T01:00:56.466Z,36.30
2017-12-19T01:01:21.449Z,37.10
2017-12-19T01:01:46.073Z,37.80
2017-12-19T01:02:11.203Z,36.00
2017-12-19T01:02:36.541Z,35.20
2017-12-19T01:03:01.847Z,34.00
2017-12-19T01:03:26.852Z,34.40
2017-12-19T01:03:52.193Z,33.20
2017-12-19T01:04:17.624Z,33.00
2017-12-19T01:04:42.315Z,34.70
2017-12-19T01:05:06.991Z,35.70
2017-12-19T01:05:32.390Z,35.70
2017-12-19T01:05:57.708Z,35.20
2017-12-19T01:06:23.369Z,36.20
2017-12-19T01:06:48.772Z,35.00
2017-12-19T01:07:13.901Z,34.70
2017-12-19T01:07:39.268Z,35.20
2017-12-19T01:08:04.664Z,35.80
2017-12-19T01:08:29.358Z,34.80
2017-12-19T01:08:54.699Z,35.60
2017-12-19T01:09:20.505Z,36.10
2017-12-19T01:10:35.199Z,36.00
2017-12-19T01:11:00.524Z,35.80
2017-12-19T01:11:26.186Z,35.40
2017-12-19T01:11:51.559Z,35.40
2017-12-19T01:12:16.868Z,35.60
2017-12-19T01:12:41.665Z,35.80
2017-12-19T01:13:06.379Z,35.40
2017-12-19T01:13:31.986Z,35.00
2017-12-19T01:13:56.614Z,35.90
2017-12-19T01:14:21.187Z,36.30
2017-12-19T01:14:45.833Z,37.60
2017-12-19T01:15:10.473Z,36.80
2017-12-19T01:15:35.130Z,36.90
2017-12-19T01:16:00.548Z,37.30
2017-12-19T01:16:25.582Z,37.10
2017-12-19T01:16:51.604Z,35.80
2017-12-19T01:17:17.159Z,36.60
2017-12-19T01:18:07.058Z,36.20
2017-12-19T01:18:31.744Z,36.30
2017-12-19T01:18:56.485Z,35.40
2017-12-19T01:19:21.158Z,35.80
2017-12-19T01:19:45.722Z,36.00
2017-12-19T01:20:10.404Z,36.20
2017-12-19T01:20:35.277Z,36.10
2017-12-19T01:20:59.962Z,37.30
2017-12-19T01:21:24.639Z,37.50
2017-12-19T01:21:50.350Z,38.00
2017-12-19T01:22:15.771Z,36.00
2017-12-19T01:22:41.298Z,35.40
2017-12-19T01:23:06.338Z,36.30
2017-12-19T01:23:31.702Z,36.80
2017-12-19T01:23:56.837Z,36.60
2017-12-19T01:24:21.501Z,37.10
2017-12-19T01:24:46.493Z,36.70
2017-12-19T01:25:11.533Z,36.40
2017-12-19T01:25:36.923Z,37.00
2017-12-19T01:26:02.235Z,36.10
2017-12-19T01:26:27.637Z,37.60
2017-12-19T01:26:53.058Z,37.10
2017-12-19T01:27:18.105Z,36.00
2017-12-19T01:27:43.094Z,35.20
2017-12-19T01:28:07.803Z,35.70
2017-12-19T01:28:33.137Z,36.30
2017-12-19T01:28:57.889Z,35.30
2017-12-19T01:29:23.719Z,35.90
2017-12-19T01:29:48.686Z,37.40
2017-12-19T01:30:13.713Z,38.40
2017-12-19T01:30:39.001Z,36.50
2017-12-19T01:31:29.916Z,35.90
2017-12-19T01:32:20.576Z,35.60
2017-12-19T01:32:45.328Z,36.20
2017-12-19T01:33:10.663Z,35.90
2017-12-19T01:33:36.081Z,35.10
2017-12-19T01:34:00.820Z,34.10
2017-12-19T01:34:26.142Z,35.20
2017-12-19T01:35:16.248Z,35.80
2017-12-19T01:35:41.586Z,36.00
2017-12-19T01:36:06.968Z,34.50
2017-12-19T01:36:31.955Z,34.40
2017-12-19T01:36:57.612Z,34.80
2017-12-19T01:37:22.356Z,35.40
2017-12-19T01:37:47.079Z,35.30
2017-12-19T01:38:12.454Z,36.10
2017-12-19T01:38:37.805Z,36.60
2017-12-19T01:39:03.067Z,37.30
2017-12-19T01:39:28.395Z,36.20
2017-12-19T01:39:53.086Z,35.30
2017-12-19T01:40:43.794Z,35.90
2017-12-19T01:41:08.979Z,36.30
2017-12-19T01:41:34.352Z,35.20
2017-12-19T01:41:59.366Z,35.50
2017-12-19T01:42:50.061Z,36.00
2017-12-19T01:43:15.418Z,36.10
2017-12-19T01:43:40.846Z,36.40
2017-12-19T01:44:05.849Z,36.10
2017-12-19T01:44:31.720Z,36.90
2017-12-19T01:44:57.119Z,36.20
2017-12-19T01:45:22.594Z,36.50
2017-12-19T01:45:47.267Z,36.10
2017-12-19T01:46:12.173Z,35.90
2017-12-19T01:46:37.575Z,35.20
2017-12-19T01:47:02.634Z,35.90
2017-12-19T01:47:27.621Z,35.80
2017-12-19T01:47:52.990Z,36.10
2017-12-19T01:48:18.376Z,35.50
2017-12-19T01:48:44.187Z,35.20
2017-12-19T01:49:08.853Z,35.70
2017-12-19T01:49:33.500Z,36.50
2017-12-19T01:49:58.117Z,36.70
2017-12-19T01:50:22.758Z,36.70
2017-12-19T01:50:47.446Z,36.10
2017-12-19T01:51:37.521Z,36.40
2017-12-19T01:52:03.325Z,37.20
2017-12-19T01:52:28.347Z,36.80
2017-12-19T01:52:53.672Z,35.00
2017-12-19T01:53:18.376Z,34.70
2017-12-19T01:53:43.402Z,35.10
2017-12-19T01:54:08.931Z,35.70
2017-12-19T01:54:33.488Z,35.50
2017-12-19T01:54:58.374Z,35.50
2017-12-19T01:55:23.696Z,36.40
2017-12-19T01:55:49.028Z,35.60
2017-12-19T01:56:14.350Z,35.80
2017-12-19T01:56:38.916Z,36.00
2017-12-19T01:57:04.518Z,34.90
2017-12-19T01:57:29.910Z,34.00
2017-12-19T01:57:55.244Z,35.00
2017-12-19T01:58:20.602Z,34.60
2017-12-19T01:58:46.082Z,34.80
2017-12-19T01:59:10.735Z,35.30
2017-12-19T01:59:35.351Z,36.10
2017-12-19T02:00:00.218Z,35.40
2017-12-19T02:00:25.629Z,35.10
2017-12-19T02:00:51.015Z,35.30
2017-12-19T02:01:16.942Z,35.90
2017-12-19T02:01:41.535Z,36.80
2017-12-19T02:02:07.266Z,35.60
2017-12-19T02:02:57.292Z,35.40
2017-12-19T02:03:22.589Z,35.00
2017-12-19T02:03:47.798Z,35.70
2017-12-19T02:04:37.188Z,36.30
2017-12-19T02:05:01.863Z,36.30
2017-12-19T02:05:27.006Z,35.80
2017-12-19T02:05:52.351Z,35.90
2017-12-19T02:06:42.092Z,36.30
2017-12-19T02:07:07.836Z,36.20
2017-12-19T02:07:33.270Z,35.70
2017-12-19T02:07:58.592Z,37.50
2017-12-19T02:08:24.035Z,37.20
2017-12-19T02:08:49.402Z,37.80
2017-12-19T02:09:14.852Z,37.20
2017-12-19T02:09:40.199Z,36.90
2017-12-19T02:10:05.192Z,36.90
2017-12-19T02:10:30.146Z,35.80
2017-12-19T02:10:54.789Z,34.90
2017-12-19T02:11:19.769Z,35.70
2017-12-19T02:11:45.128Z,36.40
2017-12-19T02:12:10.799Z,37.50
2017-12-19T02:12:36.230Z,37.70
2017-12-19T02:13:01.629Z,37.10
2017-12-19T02:13:27.020Z,36.90
2017-12-19T02:13:52.410Z,36.80
2017-12-19T02:14:17.073Z,37.60
2017-12-19T02:14:41.810Z,37.50
2017-12-19T02:15:06.658Z,36.20
2017-12-19T02:15:31.319Z,35.50
2017-12-19T02:15:56.016Z,35.70
2017-12-19T02:16:20.630Z,36.10
2017-12-19T02:16:45.350Z,36.40
2017-12-19T02:17:10.288Z,37.80
2017-12-19T02:17:34.810Z,38.20
2017-12-19T02:18:00.044Z,37.30
2017-12-19T02:18:24.548Z,37.60
2017-12-19T02:18:49.758Z,38.10
2017-12-19T02:19:14.369Z,37.70
2017-12-19T02:19:40.587Z,37.60
2017-12-19T02:20:05.817Z,36.80
2017-12-19T02:20:31.155Z,37.60
2017-12-19T02:20:56.003Z,38.70
2017-12-19T02:21:20.605Z,38.40
2017-12-19T02:22:11.210Z,38.60
2017-12-19T02:22:35.822Z,37.20
2017-12-19T02:23:01.065Z,36.80
2017-12-19T02:23:25.634Z,36.70
2017-12-19T02:23:50.178Z,36.50
2017-12-19T02:24:39.961Z,36.00
2017-12-19T02:25:04.595Z,35.60
2017-12-19T02:25:29.811Z,37.80
2017-12-19T02:25:55.041Z,38.50
2017-12-19T02:26:20.333Z,38.80
2017-12-19T02:26:44.903Z,37.40
2017-12-19T02:27:10.187Z,37.30
2017-12-19T02:27:35.064Z,36.90
2017-12-19T02:27:59.701Z,36.30
2017-12-19T02:28:24.965Z,37.10
2017-12-19T02:28:49.551Z,38.00
2017-12-19T02:29:14.111Z,39.40
2017-12-19T02:29:39.478Z,39.00
2017-12-19T02:30:04.077Z,38.90
2017-12-19T02:30:29.338Z,38.90
2017-12-19T02:30:54.299Z,39.70
2017-12-19T02:31:18.839Z,39.90
2017-12-19T02:31:44.085Z,39.80
2017-12-19T02:32:09.399Z,40.00
2017-12-19T02:32:36.180Z,0.00
2017-12-19T02:33:01.445Z,40.20
2017-12-19T02:33:26.749Z,39.40
2017-12-19T02:33:51.363Z,39.60
2017-12-19T02:34:16.534Z,40.50
2017-12-19T02:34:41.107Z,42.70
2017-12-19T02:35:06.529Z,42.00
2017-12-19T02:35:31.720Z,43.40
2017-12-19T02:35:56.222Z,44.10
2017-12-19T02:36:20.789Z,42.50
2017-12-19T02:36:46.395Z,42.50
2017-12-19T02:37:11.710Z,42.90
2017-12-19T02:37:36.584Z,43.90
2017-12-19T02:38:01.486Z,45.10
2017-12-19T02:38:26.010Z,46.10
2017-12-19T02:38:50.585Z,46.90
2017-12-19T02:39:15.178Z,44.80
2017-12-19T02:39:39.873Z,42.50
2017-12-19T02:40:05.115Z,43.00
2017-12-19T02:40:30.382Z,44.90
2017-12-19T02:40:55.259Z,46.00
2017-12-19T02:41:20.126Z,45.60
2017-12-19T02:41:45.397Z,46.00
2017-12-19T02:42:10.290Z,45.70
2017-12-19T02:42:35.555Z,46.40
2017-12-19T02:43:01.725Z,46.50
2017-12-19T02:43:26.669Z,45.30
2017-12-19T02:43:51.965Z,43.60
2017-12-19T02:44:17.307Z,41.60
2017-12-19T02:44:41.834Z,42.80
2017-12-19T02:45:06.423Z,42.80
2017-12-19T02:45:31.704Z,43.10
2017-12-19T02:45:57.074Z,43.50
2017-12-19T02:46:22.431Z,43.20
2017-12-19T02:46:47.728Z,44.30
2017-12-19T02:47:13.097Z,44.40
2017-12-19T02:47:38.208Z,44.20
2017-12-19T02:48:03.094Z,43.50
2017-12-19T02:48:27.671Z,43.30
2017-12-19T02:48:52.320Z,41.70
2017-12-19T02:49:41.633Z,41.30
2017-12-19T02:50:06.194Z,40.10
2017-12-19T02:50:31.442Z,41.30
2017-12-19T02:50:57.237Z,42.30
2017-12-19T02:51:22.201Z,43.30
2017-12-19T02:51:47.508Z,43.50
2017-12-19T02:52:12.590Z,42.40
2017-12-19T02:52:37.616Z,42.30
2017-12-19T02:53:02.180Z,42.00
2017-12-19T02:53:27.851Z,42.50
2017-12-19T02:53:52.491Z,42.10
2017-12-19T02:54:17.086Z,40.30
2017-12-19T02:54:41.666Z,40.40
2017-12-19T02:55:06.582Z,40.00
2017-12-19T02:55:31.849Z,40.50
2017-12-19T02:55:57.175Z,40.90
2017-12-19T02:56:22.090Z,40.70
2017-12-19T02:56:47.364Z,40.90
2017-12-19T02:57:12.247Z,41.10
2017-12-19T02:57:37.248Z,41.70
2017-12-19T02:58:02.325Z,40.10
2017-12-19T02:58:27.179Z,40.50
2017-12-19T02:58:52.408Z,41.20
2017-12-19T02:59:17.727Z,41.10
2017-12-19T02:59:42.544Z,41.30
2017-12-19T03:00:07.865Z,41.90
2017-12-19T03:00:33.165Z,41.50
2017-12-19T03:00:58.461Z,40.60
2017-12-19T03:01:23.757Z,39.60
2017-12-19T03:01:48.744Z,40.10
2017-12-19T03:02:13.314Z,41.10
2017-12-19T03:02:37.995Z,41.90
2017-12-19T03:03:02.897Z,41.50
2017-12-19T03:03:28.549Z,40.50
2017-12-19T03:03:54.037Z,41.00
2017-12-19T03:04:19.372Z,41.60
2017-12-19T03:04:44.624Z,41.50
2017-12-19T03:05:09.920Z,40.30
2017-12-19T03:05:35.289Z,41.30
2017-12-19T03:06:00.214Z,41.80
2017-12-19T03:06:25.080Z,41.20
2017-12-19T03:06:49.941Z,41.10
2017-12-19T03:07:14.844Z,41.30
2017-12-19T03:08:05.052Z,41.20
2017-12-19T03:08:30.354Z,41.40
2017-12-19T03:08:55.606Z,41.50
2017-12-19T03:09:20.198Z,40.40
2017-12-19T03:09:44.833Z,40.50
2017-12-19T03:10:10.669Z,41.40
2017-12-19T03:11:00.180Z,40.50
2017-12-19T03:11:24.690Z,40.00
2017-12-19T03:11:49.346Z,40.10
2017-12-19T03:12:13.842Z,40.90
2017-12-19T03:12:39.146Z,41.00
2017-12-19T03:13:03.777Z,41.10
2017-12-19T03:13:29.017Z,40.30
2017-12-19T03:13:54.661Z,40.40
2017-12-19T03:14:19.959Z,41.10
2017-12-19T03:14:45.182Z,41.80
2017-12-19T03:15:10.571Z,40.40
2017-12-19T03:15:35.416Z,39.50
2017-12-19T03:16:00.376Z,39.60
2017-12-19T03:16:24.911Z,39.50
2017-12-19T03:16:49.483Z,40.70
2017-12-19T03:17:14.431Z,40.50
2017-12-19T03:17:39.786Z,39.90
2017-12-19T03:18:04.973Z,39.10
2017-12-19T03:18:29.681Z,39.60
2017-12-19T03:18:55.423Z,39.50
2017-12-19T03:19:19.982Z,39.60
2017-12-19T03:19:45.262Z,41.20
2017-12-19T03:20:35.886Z,40.90
2017-12-19T03:21:01.186Z,41.20
2017-12-19T03:21:25.749Z,39.50
2017-12-19T03:21:50.310Z,39.50
2017-12-19T03:22:15.699Z,39.40
2017-12-19T03:22:40.774Z,39.50
2017-12-19T03:23:06.122Z,38.60
2017-12-19T03:23:33.620Z,39.00
2017-12-19T03:23:59.269Z,39.80
2017-12-19T03:24:23.889Z,39.90
2017-12-19T03:24:49.236Z,39.80
2017-12-19T03:25:14.617Z,39.90
2017-12-19T03:25:39.209Z,38.40
2017-12-19T03:26:04.009Z,38.70
2017-12-19T03:26:28.634Z,39.50
2017-12-19T03:26:53.949Z,41.00
2017-12-19T03:27:19.501Z,40.80
2017-12-19T03:27:44.551Z,40.30
2017-12-19T03:28:09.226Z,40.30
2017-12-19T03:28:33.951Z,41.50
2017-12-19T03:28:58.952Z,41.90
2017-12-19T03:29:24.280Z,40.00
2017-12-19T03:29:49.663Z,39.00
2017-12-19T03:30:14.992Z,38.40
2017-12-19T03:30:40.398Z,39.30
2017-12-19T03:31:05.804Z,39.60
2017-12-19T03:31:30.519Z,39.50
2017-12-19T03:32:20.248Z,41.00
2017-12-19T03:32:47.486Z,0.00
2017-12-19T03:33:12.920Z,40.30
2017-12-19T03:33:37.573Z,40.10
2017-12-19T03:34:03.327Z,40.50
2017-12-19T03:34:28.815Z,41.00
2017-12-19T03:34:55.149Z,40.00
2017-12-19T03:35:20.576Z,39.80
2017-12-19T03:35:45.235Z,39.40
2017-12-19T03:36:09.902Z,39.20
2017-12-19T03:36:35.338Z,40.30
2017-12-19T03:37:00.664Z,40.90
2017-12-19T03:37:25.720Z,41.10
2017-12-19T03:37:51.071Z,41.20
2017-12-19T03:38:16.491Z,40.80
2017-12-19T03:38:41.824Z,41.30
2017-12-19T03:39:07.507Z,40.40
2017-12-19T03:39:32.909Z,39.10
2017-12-19T03:39:57.530Z,41.00
2017-12-19T03:40:47.664Z,39.10
2017-12-19T03:41:13.146Z,38.30
2017-12-19T03:41:38.484Z,39.70
2017-12-19T03:42:30.082Z,39.60
2017-12-19T03:42:54.719Z,40.90
2017-12-19T03:43:20.101Z,41.20
2017-12-19T03:43:45.507Z,40.60
2017-12-19T03:44:10.925Z,39.00
2017-12-19T03:44:35.645Z,39.50
2017-12-19T03:45:01.064Z,40.70
2017-12-19T03:45:25.736Z,42.50
2017-12-19T03:45:51.067Z,41.20
2017-12-19T03:46:43.561Z,39.00
2017-12-19T03:47:54.051Z,40.00
2017-12-19T03:49:06.455Z,42.30
2017-12-19T03:49:32.263Z,41.60
2017-12-19T03:49:56.983Z,40.00
2017-12-19T03:50:21.845Z,39.70
2017-12-19T03:50:47.214Z,38.90
2017-12-19T03:51:12.610Z,39.10
2017-12-19T03:51:37.343Z,39.80
2017-12-19T03:52:02.806Z,40.20
2017-12-19T03:52:53.603Z,40.00
2017-12-19T03:53:18.327Z,38.80
2017-12-19T03:53:43.409Z,38.70
2017-12-19T03:54:08.958Z,39.30
2017-12-19T03:54:34.718Z,39.40
2017-12-19T03:55:00.174Z,39.40
2017-12-19T03:55:25.231Z,39.00
2017-12-19T03:55:50.700Z,40.10
2017-12-19T03:56:40.925Z,39.20
2017-12-19T03:57:05.881Z,39.10
2017-12-19T03:57:31.288Z,39.00
2017-12-19T03:57:56.688Z,38.50
2017-12-19T03:58:21.342Z,39.80
2017-12-19T03:58:46.773Z,40.10
2017-12-19T03:59:12.191Z,40.50
2017-12-19T03:59:37.976Z,41.20
2017-12-19T04:00:02.661Z,40.80
2017-12-19T04:00:27.440Z,39.90
2017-12-19T04:00:52.861Z,38.70
2017-12-19T04:01:43.008Z,38.20
2017-12-19T04:02:07.629Z,39.10
2017-12-19T04:02:32.794Z,39.30
2017-12-19T04:02:57.995Z,39.50
2017-12-19T04:03:23.388Z,39.50
2017-12-19T04:03:48.793Z,40.40
2017-12-19T04:04:14.175Z,40.60
2017-12-19T04:04:39.967Z,39.10
2017-12-19T04:05:06.259Z,37.90
2017-12-19T04:05:31.731Z,37.70
2017-12-19T04:05:57.081Z,38.70
2017-12-19T04:06:47.120Z,37.50
2017-12-19T04:07:12.535Z,38.80
2017-12-19T04:07:37.858Z,39.50
2017-12-19T04:08:03.231Z,39.70
2017-12-19T04:08:28.252Z,39.90
2017-12-19T04:08:52.988Z,37.80
2017-12-19T04:09:17.690Z,37.80
2017-12-19T04:09:43.372Z,37.70
2017-12-19T04:10:08.333Z,38.70
2017-12-19T04:10:33.684Z,39.30
2017-12-19T04:10:59.072Z,38.10
2017-12-19T04:11:26.465Z,38.50
2017-12-19T04:11:51.803Z,38.30
2017-12-19T04:12:16.622Z,38.50
2017-12-19T04:12:42.021Z,39.20
2017-12-19T04:13:07.413Z,40.10
2017-12-19T04:13:32.220Z,40.00
2017-12-19T04:13:58.336Z,40.10
2017-12-19T04:14:24.182Z,42.00
2017-12-19T04:14:49.904Z,43.50
2017-12-19T04:15:15.245Z,43.60
2017-12-19T04:15:40.695Z,51.70
2017-12-19T04:16:06.072Z,51.30
2017-12-19T04:16:30.808Z,66.90
2017-12-19T04:16:56.123Z,55.40
2017-12-19T04:17:20.841Z,47.80
2017-12-19T04:17:45.782Z,43.40
2017-12-19T04:18:11.158Z,41.50
2017-12-19T04:18:36.319Z,40.40
2017-12-19T04:19:01.767Z,41.50
2017-12-19T04:19:27.153Z,40.90
2017-12-19T04:19:53.295Z,39.50
2017-12-19T04:20:18.728Z,39.20
2017-12-19T04:20:44.133Z,39.30
2017-12-19T04:21:09.496Z,40.00
2017-12-19T04:21:34.178Z,38.50
2017-12-19T04:21:59.196Z,39.30
2017-12-19T04:22:24.520Z,39.30
2017-12-19T04:22:49.798Z,42.20
2017-12-19T04:23:15.120Z,46.40
2017-12-19T04:24:05.216Z,49.80
2017-12-19T04:24:30.609Z,50.30
2017-12-19T04:24:56.319Z,46.20
2017-12-19T04:25:21.068Z,43.30
2017-12-19T04:25:46.492Z,42.40
2017-12-19T04:26:11.894Z,43.70
2017-12-19T04:26:37.324Z,42.40
2017-12-19T04:27:01.999Z,41.60
2017-12-19T04:27:27.335Z,40.50
2017-12-19T04:27:52.745Z,41.30
2017-12-19T04:28:17.838Z,41.70
2017-12-19T04:28:42.556Z,39.90
2017-12-19T04:29:07.541Z,38.90
2017-12-19T04:29:32.872Z,39.80
2017-12-19T04:29:57.927Z,40.10
2017-12-19T04:30:23.065Z,41.20
2017-12-19T04:30:48.489Z,42.70
2017-12-19T04:31:13.116Z,43.10
2017-12-19T04:31:38.470Z,42.00
2017-12-19T04:32:03.417Z,42.80
2017-12-19T04:32:28.803Z,42.80
2017-12-19T04:32:54.217Z,43.50
2017-12-19T04:33:18.906Z,43.40
2017-12-19T04:33:43.531Z,41.90
2017-12-19T04:34:08.178Z,41.30
2017-12-19T04:34:33.614Z,42.30
2017-12-19T04:34:58.633Z,42.70
2017-12-19T04:35:23.993Z,43.30
2017-12-19T04:36:14.019Z,41.00
2017-12-19T04:36:39.383Z,41.60
2017-12-19T04:37:04.756Z,41.10
2017-12-19T04:37:30.155Z,41.80
2017-12-19T04:37:55.092Z,43.40
2017-12-19T04:38:20.532Z,42.40
2017-12-19T04:38:45.970Z,43.30
2017-12-19T04:39:10.613Z,42.60
2017-12-19T04:39:36.112Z,41.80
2017-12-19T04:40:01.881Z,42.30
2017-12-19T04:40:27.178Z,42.90
2017-12-19T04:40:51.859Z,42.70
2017-12-19T04:41:16.890Z,41.40
2017-12-19T04:41:42.010Z,41.80
2017-12-19T04:42:07.108Z,41.50
2017-12-19T04:42:32.405Z,40.70
2017-12-19T04:43:22.421Z,42.20
2017-12-19T04:43:47.497Z,43.20
2017-12-19T04:44:39.323Z,42.50
2017-12-19T04:45:04.784Z,41.30
2017-12-19T04:45:30.154Z,43.40
2017-12-19T04:45:55.460Z,43.90
2017-12-19T04:46:20.158Z,43.20
2017-12-19T04:47:09.822Z,43.70
2017-12-19T04:47:35.713Z,42.90
2017-12-19T04:48:00.329Z,43.00
2017-12-19T04:48:25.759Z,42.40
2017-12-19T04:48:50.943Z,42.10
2017-12-19T04:49:15.642Z,43.20
2017-12-19T04:49:41.063Z,43.40
2017-12-19T04:50:06.735Z,43.30
2017-12-19T04:50:32.775Z,43.60
2017-12-19T04:50:57.439Z,42.60
2017-12-19T04:51:22.436Z,41.00
2017-12-19T04:51:47.861Z,41.10
2017-12-19T04:52:13.039Z,41.30
2017-12-19T04:52:38.431Z,40.50
2017-12-19T04:53:29.108Z,41.30
2017-12-19T04:53:54.202Z,41.80
2017-12-19T04:54:19.139Z,41.50
2017-12-19T04:54:44.494Z,41.00
2017-12-19T04:55:10.011Z,41.20
2017-12-19T04:55:35.083Z,40.10
2017-12-19T04:56:00.546Z,40.50
2017-12-19T04:56:26.052Z,40.20
2017-12-19T04:56:50.811Z,40.20
2017-12-19T04:57:16.136Z,41.10
2017-12-19T04:57:40.937Z,42.60
2017-12-19T04:58:05.661Z,42.60
2017-12-19T04:58:31.044Z,41.90
2017-12-19T04:58:55.719Z,41.20
2017-12-19T04:59:21.108Z,41.30
2017-12-19T04:59:46.638Z,43.10
2017-12-19T05:00:12.450Z,44.90
2017-12-19T05:00:37.717Z,45.10
2017-12-19T05:01:02.361Z,44.10
2017-12-19T05:01:27.740Z,43.60
2017-12-19T05:01:53.180Z,44.40
2017-12-19T05:02:44.017Z,44.80
2017-12-19T05:03:09.368Z,44.10
2017-12-19T05:03:34.891Z,43.70
2017-12-19T05:04:00.242Z,43.60
2017-12-19T05:04:24.900Z,44.00
2017-12-19T05:04:49.649Z,44.00
2017-12-19T05:05:15.286Z,44.10
2017-12-19T05:05:40.726Z,45.10
2017-12-19T05:06:06.173Z,46.20
2017-12-19T05:06:31.303Z,45.80
2017-12-19T05:06:56.599Z,44.90
2017-12-19T05:07:21.987Z,46.10
2017-12-19T05:07:46.967Z,45.30
2017-12-19T05:08:11.624Z,44.40
2017-12-19T05:08:37.026Z,45.00
2017-12-19T05:09:27.916Z,46.40
2017-12-19T05:09:52.621Z,46.10
2017-12-19T05:10:43.712Z,47.80
2017-12-19T05:11:08.374Z,46.70
2017-12-19T05:11:33.813Z,45.40
2017-12-19T05:11:58.926Z,45.70
2017-12-19T05:12:24.408Z,46.90
2017-12-19T05:12:49.714Z,46.60
2017-12-19T05:13:15.166Z,45.60
2017-12-19T05:13:40.536Z,45.30
2017-12-19T05:14:06.182Z,44.70
2017-12-19T05:14:30.832Z,44.70
2017-12-19T05:14:56.230Z,45.00
2017-12-19T05:15:21.208Z,44.80
2017-12-19T05:15:46.577Z,46.00
2017-12-19T05:16:11.764Z,45.40
2017-12-19T05:16:37.006Z,46.00
2017-12-19T05:17:02.421Z,45.30
2017-12-19T05:17:53.176Z,46.00
2017-12-19T05:18:17.845Z,46.30
2017-12-19T05:18:42.909Z,47.50
2017-12-19T05:19:07.728Z,46.40
2017-12-19T05:19:33.388Z,45.90
2017-12-19T05:19:58.766Z,44.90
2017-12-19T05:20:24.398Z,45.10
2017-12-19T05:20:49.812Z,45.40
2017-12-19T05:21:15.163Z,45.70
2017-12-19T05:21:39.743Z,46.30
2017-12-19T05:22:05.109Z,45.90
2017-12-19T05:22:29.766Z,45.20
2017-12-19T05:22:54.421Z,44.30
2017-12-19T05:23:19.135Z,45.20
2017-12-19T05:23:44.630Z,44.80
2017-12-19T05:24:11.028Z,44.20
2017-12-19T05:24:35.857Z,44.70
2017-12-19T05:25:26.802Z,44.70
2017-12-19T05:25:52.200Z,44.90
2017-12-19T05:26:17.563Z,43.50
2017-12-19T05:26:42.271Z,42.30
2017-12-19T05:27:07.294Z,41.80
2017-12-19T05:27:31.945Z,44.70
2017-12-19T05:27:56.549Z,44.70
2017-12-19T05:28:21.629Z,43.60
2017-12-19T05:28:46.294Z,43.50
2017-12-19T05:29:11.258Z,44.40
2017-12-19T05:29:36.638Z,42.50
2017-12-19T05:30:02.014Z,42.50
2017-12-19T05:30:27.743Z,42.60
2017-12-19T05:30:53.170Z,42.20
2017-12-19T05:31:18.463Z,43.10
2017-12-19T05:31:43.109Z,43.90
2017-12-19T05:32:08.483Z,42.90
2017-12-19T05:32:34.358Z,41.90
2017-12-19T05:32:59.101Z,43.80
2017-12-19T05:33:23.992Z,43.40
2017-12-19T05:33:49.883Z,42.60
2017-12-19T05:34:15.249Z,41.80
2017-12-19T05:34:40.580Z,42.20
2017-12-19T05:35:05.243Z,42.20
2017-12-19T05:35:31.097Z,41.40
2017-12-19T05:35:55.689Z,41.90
2017-12-19T05:36:20.271Z,43.60
2017-12-19T05:36:45.053Z,44.80
2017-12-19T05:37:09.731Z,43.80
2017-12-19T05:37:34.413Z,42.40
2017-12-19T05:38:00.311Z,42.90
2017-12-19T05:38:25.630Z,43.30
2017-12-19T05:38:50.311Z,43.20
2017-12-19T05:39:15.663Z,41.80
2017-12-19T05:39:41.036Z,41.60
2017-12-19T05:40:06.450Z,41.30
2017-12-19T05:40:32.153Z,41.10
2017-12-19T05:40:57.567Z,43.00
2017-12-19T05:41:22.870Z,42.90
2017-12-19T05:41:48.350Z,41.20
2017-12-19T05:42:13.703Z,41.20
2017-12-19T05:42:40.616Z,42.70
2017-12-19T05:43:05.414Z,43.50
2017-12-19T05:43:30.690Z,43.10
2017-12-19T05:44:34.456Z,41.00
2017-12-19T05:44:59.513Z,43.10
2017-12-19T05:45:24.106Z,43.60
2017-12-19T05:45:49.847Z,42.40
2017-12-19T05:46:15.328Z,41.40
2017-12-19T05:46:40.772Z,41.90